createdAt,value
2024-05-09T00:00:44.891Z,38.63
2024-05-09T00:03:33.076Z,38.36
2024-05-09T00:06:02.069Z,38.48
2024-05-09T00:08:29.962Z,38.68
2024-05-09T00:10:58.070Z,38.80
2024-05-09T00:13:25.538Z,38.47
2024-05-09T00:15:53.466Z,38.28
2024-05-09T00:18:21.381Z,38.48
2024-05-09T00:20:49.922Z,38.59
2024-05-09T00:23:17.569Z,38.49
2024-05-09T00:25:46.071Z,38.55
2024-05-09T00:28:13.873Z,38.42
2024-05-09T00:30:41.912Z,38.73
2024-05-09T00:33:10.967Z,38.36
2024-05-09T00:35:39.988Z,38.49
2024-05-09T00:38:08.130Z,38.54
2024-05-09T00:40:42.091Z,38.76
2024-05-09T00:43:13.178Z,38.79
2024-05-09T00:45:42.051Z,39.06
2024-05-09T00:48:12.258Z,38.85
2024-05-09T00:50:44.603Z,38.59
2024-05-09T00:53:14.602Z,38.26
2024-05-09T00:55:42.946Z,38.77
2024-05-09T00:58:15.586Z,39.04
2024-05-09T01:00:43.803Z,38.64
2024-05-09T01:03:14.573Z,38.68
2024-05-09T01:05:44.836Z,38.72
2024-05-09T01:08:13.684Z,38.63
2024-05-09T01:10:44.862Z,38.67
2024-05-09T01:13:18.038Z,38.60
2024-05-09T01:15:48.066Z,38.71
2024-05-09T01:18:15.979Z,39.03
2024-05-09T01:20:45.395Z,38.63
2024-05-09T01:23:15.728Z,38.90
2024-05-09T01:25:46.199Z,38.28
2024-05-09T01:28:16.145Z,38.60
2024-05-09T01:30:44.714Z,38.38
2024-05-09T01:33:13.605Z,38.80
2024-05-09T01:35:42.897Z,38.55
2024-05-09T01:38:13.811Z,38.71
2024-05-09T01:40:44.223Z,38.69
2024-05-09T01:43:12.281Z,38.79
2024-05-09T01:45:41.273Z,38.54
2024-05-09T01:48:10.188Z,38.84
2024-05-09T01:50:41.727Z,38.82
2024-05-09T01:53:12.677Z,38.46
2024-05-09T01:55:40.936Z,38.53
2024-05-09T01:58:09.294Z,38.70
2024-05-09T02:00:41.041Z,38.68
2024-05-09T02:03:14.416Z,38.75
2024-05-09T02:05:46.764Z,38.62
2024-05-09T02:08:16.346Z,38.77
2024-05-09T02:10:45.037Z,38.58
2024-05-09T02:13:13.529Z,38.48
2024-05-09T02:15:41.705Z,38.64
2024-05-09T02:18:10.294Z,38.59
2024-05-09T02:20:41.170Z,38.96
2024-05-09T02:23:09.811Z,38.81
2024-05-09T02:25:42.315Z,38.38
2024-05-09T02:28:09.786Z,38.69
2024-05-09T02:30:40.890Z,38.44
2024-05-09T02:33:12.646Z,38.87
2024-05-09T02:35:44.005Z,38.46
2024-05-09T02:38:12.836Z,38.74
2024-05-09T02:40:41.166Z,38.52
2024-05-09T02:43:10.822Z,38.86
2024-05-09T02:45:40.451Z,38.89
2024-05-09T02:48:12.512Z,38.42
2024-05-09T02:50:41.896Z,38.49
2024-05-09T02:53:10.319Z,38.89
2024-05-09T02:55:42.314Z,38.97
2024-05-09T02:58:10.755Z,38.78
2024-05-09T03:00:41.825Z,38.55
2024-05-09T03:03:13.910Z,38.72
2024-05-09T03:05:45.287Z,38.59
2024-05-09T03:08:13.275Z,38.84
2024-05-09T03:10:41.239Z,38.57
2024-05-09T03:13:10.039Z,38.90
2024-05-09T03:15:37.818Z,38.72
2024-05-09T03:18:06.974Z,38.93
2024-05-09T03:20:36.637Z,39.07
2024-05-09T03:23:05.927Z,38.46
2024-05-09T03:25:34.314Z,38.60
2024-05-09T03:28:02.032Z,38.47
2024-05-09T03:30:39.197Z,38.89
2024-05-09T03:33:18.771Z,39.02
2024-05-09T03:35:48.944Z,38.64
2024-05-09T03:38:17.289Z,38.66
2024-05-09T03:40:46.689Z,38.78
2024-05-09T03:43:15.069Z,38.63
2024-05-09T03:45:46.094Z,38.52
2024-05-09T03:48:14.387Z,38.73
2024-05-09T03:50:42.222Z,38.79
2024-05-09T03:53:11.687Z,38.45
2024-05-09T03:55:39.372Z,38.92
2024-05-09T03:58:08.294Z,38.76
2024-05-09T04:00:39.267Z,38.98
2024-05-09T04:03:11.215Z,38.96
2024-05-09T04:05:44.479Z,38.54
2024-05-09T04:08:13.008Z,38.70
2024-05-09T04:10:41.116Z,38.84
2024-05-09T04:13:10.452Z,38.69
2024-05-09T04:15:37.942Z,38.85
2024-05-09T04:18:05.976Z,38.57
2024-05-09T04:20:38.689Z,38.91
2024-05-09T04:23:12.421Z,38.42
2024-05-09T04:25:45.128Z,38.18
2024-05-09T04:28:14.433Z,38.48
2024-05-09T04:30:42.666Z,38.45
2024-05-09T04:33:13.349Z,38.16
2024-05-09T04:35:43.501Z,38.55
2024-05-09T04:38:12.780Z,38.49
2024-05-09T04:40:40.582Z,38.76
2024-05-09T04:43:15.605Z,38.43
2024-05-09T04:45:43.137Z,38.18
2024-05-09T04:48:11.586Z,38.16
2024-05-09T04:50:39.961Z,38.53
2024-05-09T04:53:10.352Z,38.67
2024-05-09T04:55:39.905Z,38.09
2024-05-09T04:58:09.423Z,38.45
2024-05-09T05:00:41.022Z,38.53
2024-05-09T05:03:13.800Z,38.36
2024-05-09T05:05:45.348Z,38.20
2024-05-09T05:08:14.273Z,38.29
2024-05-09T05:10:42.801Z,38.11
2024-05-09T05:13:23.818Z,38.15
2024-05-09T05:15:57.396Z,37.80
2024-05-09T05:18:27.829Z,37.84
2024-05-09T05:20:56.730Z,38.11
2024-05-09T05:23:24.930Z,37.74
2024-05-09T05:25:53.360Z,37.77
2024-05-09T05:28:22.062Z,38.08
2024-05-09T05:30:50.011Z,38.03
2024-05-09T05:33:19.279Z,38.15
2024-05-09T05:35:47.339Z,37.93
2024-05-09T05:38:15.802Z,37.94
2024-05-09T05:40:43.572Z,38.05
2024-05-09T05:43:18.272Z,38.22
2024-05-09T05:45:46.499Z,38.34
2024-05-09T05:48:16.866Z,38.42
2024-05-09T05:50:45.253Z,38.46
2024-05-09T05:53:14.105Z,38.45
2024-05-09T05:55:42.983Z,38.39
2024-05-09T05:58:12.137Z,38.53
2024-05-09T06:00:42.220Z,38.49
2024-05-09T06:03:13.557Z,38.14
2024-05-09T06:05:46.126Z,38.50
2024-05-09T06:08:14.337Z,38.30
2024-05-09T06:10:42.631Z,38.70
2024-05-09T06:13:11.567Z,38.37
2024-05-09T06:15:40.932Z,38.46
2024-05-09T06:18:11.139Z,38.52
2024-05-09T06:20:41.531Z,38.49
2024-05-09T06:23:10.522Z,38.53
2024-05-09T06:25:38.722Z,38.44
2024-05-09T06:28:06.834Z,38.41
2024-05-09T06:30:40.172Z,38.45
2024-05-09T06:33:14.167Z,38.64
2024-05-09T06:35:44.750Z,38.58
2024-05-09T06:38:13.071Z,38.46
2024-05-09T06:40:42.778Z,38.59
2024-05-09T06:43:17.945Z,38.61
2024-05-09T06:45:52.774Z,38.45
2024-05-09T06:48:22.267Z,38.20
2024-05-09T06:50:50.826Z,38.62
2024-05-09T06:53:22.034Z,38.85
2024-05-09T06:55:49.966Z,38.32
2024-05-09T06:58:17.886Z,38.53
2024-05-09T07:00:45.425Z,38.12
2024-05-09T07:03:17.817Z,38.67
2024-05-09T07:05:48.668Z,38.41
2024-05-09T07:08:18.083Z,38.63
2024-05-09T07:10:45.872Z,38.40
2024-05-09T07:13:16.231Z,38.52
2024-05-09T07:15:43.887Z,38.51
2024-05-09T07:18:12.870Z,38.65
2024-05-09T07:20:41.103Z,38.61
2024-05-09T07:23:13.024Z,38.48
2024-05-09T07:25:41.613Z,38.43
2024-05-09T07:28:19.834Z,38.47
2024-05-09T07:30:47.674Z,38.32
2024-05-09T07:33:22.396Z,38.34
2024-05-09T07:35:51.472Z,38.34
2024-05-09T07:38:19.505Z,38.37
2024-05-09T07:40:47.086Z,38.42
2024-05-09T07:43:15.881Z,38.22
2024-05-09T07:45:51.482Z,38.27
2024-05-09T07:52:37.584Z,38.30
2024-05-09T07:53:49.247Z,38.06
2024-05-09T07:56:22.287Z,38.10
2024-05-09T07:58:54.375Z,38.05
2024-05-09T08:01:25.663Z,38.28
2024-05-09T08:03:54.382Z,38.34
2024-05-09T08:06:22.143Z,38.05
2024-05-09T08:09:13.771Z,37.81
2024-05-09T08:11:44.975Z,38.12
2024-05-09T08:14:12.715Z,38.31
2024-05-09T08:16:40.613Z,38.10
2024-05-09T08:19:08.901Z,38.19
2024-05-09T08:21:36.656Z,37.94
2024-05-09T08:24:07.066Z,37.98
2024-05-09T08:26:34.836Z,38.15
2024-05-09T08:29:04.906Z,38.18
2024-05-09T08:31:38.713Z,38.13
2024-05-09T08:34:07.239Z,37.79
2024-05-09T08:36:34.964Z,38.09
2024-05-09T08:39:02.773Z,37.87
2024-05-09T08:41:31.844Z,38.04
2024-05-09T08:43:59.887Z,38.05
2024-05-09T08:46:29.600Z,38.02
2024-05-09T08:48:58.837Z,38.08
2024-05-09T08:51:26.638Z,38.01
2024-05-09T08:53:54.679Z,38.02
2024-05-09T08:56:28.097Z,38.07
2024-05-09T08:58:59.599Z,38.15
2024-05-09T09:01:31.442Z,37.93
2024-05-09T09:04:03.118Z,37.68
2024-05-09T09:06:33.608Z,38.10
2024-05-09T09:09:03.753Z,38.17
2024-05-09T09:11:31.217Z,38.33
2024-05-09T09:13:59.069Z,38.00
2024-05-09T09:16:36.557Z,38.25
2024-05-09T09:19:05.247Z,37.95
2024-05-09T09:21:33.007Z,37.70
2024-05-09T09:24:01.065Z,38.14
2024-05-09T09:26:32.531Z,38.15
2024-05-09T09:29:04.426Z,37.87
2024-05-09T09:31:32.237Z,38.12
2024-05-09T09:34:07.298Z,38.00
2024-05-09T09:36:36.456Z,37.94
2024-05-09T09:39:05.040Z,38.03
2024-05-09T09:41:35.260Z,37.74
2024-05-09T09:44:04.701Z,38.00
2024-05-09T09:46:32.815Z,38.21
2024-05-09T09:49:01.431Z,37.96
2024-05-09T09:51:29.162Z,37.84
2024-05-09T09:53:57.776Z,37.98
2024-05-09T09:56:26.723Z,37.99
2024-05-09T09:58:57.641Z,38.01
2024-05-09T10:01:25.168Z,38.23
2024-05-09T10:03:54.183Z,37.89
2024-05-09T10:06:23.143Z,37.87
2024-05-09T10:08:51.692Z,37.92
2024-05-09T10:11:22.771Z,37.98
2024-05-09T10:13:53.744Z,37.65
2024-05-09T10:16:23.184Z,37.71
2024-05-09T10:18:51.322Z,37.72
2024-05-09T10:21:19.845Z,37.88
2024-05-09T10:24:02.504Z,37.77
2024-05-09T10:26:34.732Z,37.63
2024-05-09T10:29:17.095Z,37.84
2024-05-09T10:31:46.389Z,37.67
2024-05-09T10:34:19.326Z,37.92
2024-05-09T10:36:47.330Z,37.66
2024-05-09T10:39:15.990Z,37.76
2024-05-09T10:41:43.581Z,37.71
2024-05-09T10:44:12.543Z,37.85
2024-05-09T10:46:40.171Z,37.58
2024-05-09T10:49:08.979Z,37.71
2024-05-09T10:51:37.246Z,37.57
2024-05-09T10:54:05.195Z,37.70
2024-05-09T10:56:32.697Z,37.78
2024-05-09T10:59:04.213Z,37.78
2024-05-09T11:01:32.483Z,37.56
2024-05-09T11:04:01.735Z,37.57
2024-05-09T11:06:29.463Z,37.60
2024-05-09T11:08:57.833Z,37.60
2024-05-09T11:11:26.799Z,37.58
2024-05-09T11:13:54.801Z,37.54
2024-05-09T11:16:22.551Z,37.48
2024-05-09T11:18:58.952Z,37.80
2024-05-09T11:21:27.090Z,37.77
2024-05-09T11:23:55.478Z,37.57
2024-05-09T11:26:25.199Z,38.01
2024-05-09T11:28:53.240Z,37.69
2024-05-09T11:31:20.889Z,37.74
2024-05-09T11:33:49.039Z,38.02
2024-05-09T11:36:16.750Z,37.59
2024-05-09T11:38:44.599Z,37.72
2024-05-09T11:41:18.877Z,37.89
2024-05-09T11:43:46.958Z,37.69
2024-05-09T11:46:14.837Z,37.91
2024-05-09T11:48:43.096Z,37.73
2024-05-09T11:51:10.935Z,37.75
2024-05-09T11:53:38.883Z,37.97
2024-05-09T11:56:06.739Z,38.12
2024-05-09T11:58:36.807Z,37.79
2024-05-09T12:01:04.724Z,37.86
2024-05-09T12:03:37.570Z,37.86
2024-05-09T12:06:05.459Z,37.71
2024-05-09T12:08:33.820Z,37.72
2024-05-09T12:11:01.607Z,37.80
2024-05-09T12:13:29.798Z,37.72
2024-05-09T12:15:57.300Z,37.69
2024-05-09T12:18:25.258Z,37.66
2024-05-09T12:20:52.798Z,37.70
2024-05-09T12:23:20.704Z,37.74
2024-05-09T12:25:48.372Z,37.89
2024-05-09T12:28:16.804Z,37.60
2024-05-09T12:30:44.648Z,37.68
2024-05-09T12:33:13.903Z,37.52
2024-05-09T12:35:44.603Z,37.46
2024-05-09T12:38:15.499Z,37.59
2024-05-09T12:40:43.614Z,37.64
2024-05-09T12:43:12.037Z,37.57
2024-05-09T12:45:40.758Z,37.67
2024-05-09T12:48:12.339Z,37.59
2024-05-09T12:50:41.401Z,37.62
2024-05-09T12:53:09.521Z,37.82
2024-05-09T12:55:44.814Z,37.81
2024-05-09T12:58:24.774Z,37.67
2024-05-09T13:00:52.913Z,37.65
2024-05-09T13:03:22.198Z,37.35
2024-05-09T13:05:50.982Z,37.64
2024-05-09T13:08:19.396Z,37.65
2024-05-09T13:10:47.321Z,37.81
2024-05-09T13:13:15.344Z,37.63
2024-05-09T13:15:42.849Z,37.91
2024-05-09T13:18:10.764Z,37.83
2024-05-09T13:20:38.324Z,37.80
2024-05-09T13:23:08.415Z,37.53
2024-05-09T13:25:38.030Z,37.68
2024-05-09T13:28:07.523Z,37.91
2024-05-09T13:30:40.303Z,37.73
2024-05-09T13:33:11.907Z,37.85
2024-05-09T13:35:45.747Z,40.42
2024-05-09T13:38:18.969Z,41.09
2024-05-09T13:40:47.472Z,36.69
2024-05-09T13:43:15.923Z,34.99
2024-05-09T13:45:44.265Z,33.84
2024-05-09T13:48:12.449Z,33.37
2024-05-09T13:50:40.029Z,33.31
2024-05-09T13:53:08.985Z,33.49
2024-05-09T13:55:40.930Z,34.04
2024-05-09T13:58:09.593Z,33.68
2024-05-09T14:00:46.144Z,33.85
2024-05-09T14:03:18.692Z,34.06
2024-05-09T14:05:48.194Z,34.18
2024-05-09T14:08:19.408Z,33.65
2024-05-09T14:10:47.409Z,33.64
2024-05-09T14:13:16.165Z,33.03
2024-05-09T14:15:43.954Z,33.99
2024-05-09T14:18:13.886Z,33.90
2024-05-09T14:20:42.850Z,32.46
2024-05-09T14:23:12.396Z,33.02
2024-05-09T14:25:42.751Z,34.27
2024-05-09T14:28:13.773Z,33.73
2024-05-09T14:30:42.489Z,33.10
2024-05-09T14:33:11.560Z,33.19
2024-05-09T14:35:39.478Z,33.30
2024-05-09T14:38:08.842Z,34.52
2024-05-09T14:40:42.245Z,34.91
2024-05-09T14:43:13.378Z,34.39
2024-05-09T14:45:42.100Z,35.09
2024-05-09T14:48:10.766Z,34.98
2024-05-09T14:50:40.205Z,34.02
2024-05-09T14:53:11.642Z,33.99
2024-05-09T14:55:41.351Z,32.92
2024-05-09T14:58:12.817Z,33.32
2024-05-09T15:00:46.505Z,32.44
2024-05-09T15:03:22.216Z,31.68
2024-05-09T15:05:51.480Z,31.68
2024-05-09T15:08:20.153Z,33.16
2024-05-09T15:10:49.954Z,33.58
2024-05-09T15:13:19.544Z,33.17
2024-05-09T15:15:47.420Z,32.28
2024-05-09T15:18:15.773Z,32.57
2024-05-09T15:20:44.898Z,32.47
2024-05-09T15:23:13.274Z,33.68
2024-05-09T15:25:41.036Z,33.77
2024-05-09T15:28:09.092Z,33.16
2024-05-09T15:30:37.232Z,34.57
2024-05-09T15:33:07.088Z,34.71
2024-05-09T15:35:36.151Z,31.96
2024-05-09T15:38:04.742Z,31.66
2024-05-09T15:40:39.079Z,32.05
2024-05-09T15:43:10.946Z,31.61
2024-05-09T15:45:40.410Z,31.55
2024-05-09T15:48:10.250Z,31.64
2024-05-09T15:50:41.443Z,31.88
2024-05-09T15:53:13.081Z,32.77
2024-05-09T15:55:41.906Z,32.53
2024-05-09T15:58:10.454Z,32.40
2024-05-09T16:00:41.619Z,30.19
2024-05-09T16:03:13.239Z,30.93
2024-05-09T16:05:48.404Z,30.77
2024-05-09T16:08:17.096Z,31.13
2024-05-09T16:10:48.017Z,30.94
2024-05-09T16:13:17.547Z,31.68
2024-05-09T16:15:46.419Z,32.10
2024-05-09T16:18:16.061Z,32.32
2024-05-09T16:20:45.440Z,31.76
2024-05-09T16:23:15.227Z,31.57
2024-05-09T16:25:47.802Z,30.64
2024-05-09T16:28:16.202Z,31.03
2024-05-09T16:30:44.195Z,30.60
2024-05-09T16:33:12.446Z,31.07
2024-05-09T16:35:41.115Z,31.33
2024-05-09T16:38:09.055Z,32.00
2024-05-09T16:40:40.258Z,32.20
2024-05-09T16:43:10.752Z,32.16
2024-05-09T16:45:40.468Z,33.37
2024-05-09T16:48:09.007Z,33.40
2024-05-09T16:50:36.920Z,33.30
2024-05-09T16:53:06.676Z,34.38
2024-05-09T16:55:35.575Z,34.56
2024-05-09T16:58:04.884Z,35.02
2024-05-09T17:00:40.292Z,35.56
2024-05-09T17:03:13.763Z,34.38
2024-05-09T17:05:43.201Z,35.49
2024-05-09T17:08:11.554Z,36.59
2024-05-09T17:10:39.155Z,36.16
2024-05-09T17:13:08.227Z,36.14
2024-05-09T17:15:38.598Z,35.93
2024-05-09T17:18:07.784Z,37.04
2024-05-09T17:20:37.447Z,37.55
2024-05-09T17:23:13.575Z,37.03
2024-05-09T17:25:42.059Z,36.74
2024-05-09T17:28:11.131Z,36.98
2024-05-09T17:30:40.897Z,38.04
2024-05-09T17:33:11.169Z,36.04
2024-05-09T17:35:39.842Z,35.99
2024-05-09T17:38:08.084Z,37.35
2024-05-09T17:40:37.593Z,37.13
2024-05-09T17:43:10.161Z,36.33
2024-05-09T17:45:40.786Z,36.73
2024-05-09T17:48:11.404Z,36.26
2024-05-09T17:50:40.920Z,35.14
2024-05-09T17:53:10.853Z,36.66
2024-05-09T17:55:40.438Z,35.65
2024-05-09T17:58:09.168Z,36.71
2024-05-09T18:00:40.267Z,36.83
2024-05-09T18:03:12.305Z,36.92
2024-05-09T18:05:41.733Z,35.19
2024-05-09T18:08:09.934Z,34.31
2024-05-09T18:10:39.737Z,34.58
2024-05-09T18:13:09.315Z,35.13
2024-05-09T18:15:37.654Z,35.90
2024-05-09T18:18:06.808Z,35.14
2024-05-09T18:20:42.608Z,35.44
2024-05-09T18:23:16.483Z,36.37
2024-05-09T18:25:45.644Z,35.49
2024-05-09T18:28:13.800Z,37.32
2024-05-09T18:30:41.701Z,36.63
2024-05-09T18:33:13.115Z,37.10
2024-05-09T18:35:44.621Z,36.89
2024-05-09T18:38:12.596Z,36.80
2024-05-09T18:40:42.014Z,37.64
2024-05-09T18:43:11.975Z,37.97
2024-05-09T18:45:40.008Z,38.21
2024-05-09T18:48:10.043Z,38.80
2024-05-09T18:50:40.415Z,38.58
2024-05-09T18:53:12.626Z,37.71
2024-05-09T18:55:44.351Z,37.57
2024-05-09T18:58:12.636Z,36.73
2024-05-09T19:00:42.820Z,36.76
2024-05-09T19:03:14.532Z,36.50
2024-05-09T19:05:44.664Z,36.62
2024-05-09T19:08:15.599Z,36.48
2024-05-09T19:10:45.332Z,36.72
2024-05-09T19:13:14.458Z,36.64
2024-05-09T19:15:43.570Z,36.96
2024-05-09T19:18:15.645Z,36.86
2024-05-09T19:20:44.359Z,36.91
2024-05-09T19:23:12.543Z,37.02
2024-05-09T19:25:40.255Z,37.33
2024-05-09T19:28:08.337Z,37.13
2024-05-09T19:30:40.366Z,37.67
2024-05-09T19:33:14.729Z,38.02
2024-05-09T19:35:43.605Z,38.75
2024-05-09T19:38:12.862Z,38.61
2024-05-09T19:40:40.735Z,39.60
2024-05-09T19:43:08.894Z,39.58
2024-05-09T19:45:36.882Z,39.09
2024-05-09T19:48:06.444Z,39.84
2024-05-09T19:50:41.130Z,40.21
2024-05-09T19:53:13.468Z,40.46
2024-05-09T19:55:42.002Z,39.82
2024-05-09T19:58:11.900Z,40.27
2024-05-09T20:00:42.435Z,40.05
2024-05-09T20:03:13.341Z,39.62
2024-05-09T20:05:46.898Z,40.98
2024-05-09T20:08:15.347Z,40.30
2024-05-09T20:10:43.045Z,41.01
2024-05-09T20:13:11.460Z,39.44
2024-05-09T20:15:40.304Z,40.01
2024-05-09T20:18:08.413Z,40.29
2024-05-09T20:20:40.246Z,40.25
2024-05-09T20:23:12.549Z,40.92
2024-05-09T20:25:40.744Z,40.87
2024-05-09T20:28:09.001Z,41.06
2024-05-09T20:30:36.885Z,41.25
2024-05-09T20:33:07.650Z,40.98
2024-05-09T20:35:36.548Z,41.13
2024-05-09T20:38:04.927Z,41.23
2024-05-09T20:40:36.950Z,41.61
2024-05-09T20:43:09.700Z,41.01
2024-05-09T20:45:37.833Z,41.06
2024-05-09T20:48:06.957Z,41.08
2024-05-09T20:50:39.406Z,41.44
2024-05-09T20:53:12.620Z,41.15
2024-05-09T20:55:41.327Z,41.40
2024-05-09T20:58:10.096Z,41.17
2024-05-09T21:00:41.518Z,41.32
2024-05-09T21:03:14.244Z,41.06
2024-05-09T21:05:43.287Z,41.13
2024-05-09T21:08:11.297Z,40.60
2024-05-09T21:10:39.076Z,40.88
2024-05-09T21:13:07.637Z,41.32
2024-05-09T21:15:36.192Z,41.35
2024-05-09T21:18:05.268Z,41.21
2024-05-09T21:20:34.851Z,41.33
2024-05-09T21:23:03.737Z,41.18
2024-05-09T21:25:32.299Z,41.11
2024-05-09T21:28:00.838Z,40.64
2024-05-09T21:30:38.390Z,40.80
2024-05-09T21:33:11.906Z,40.91
2024-05-09T21:35:42.216Z,40.79
2024-05-09T21:38:10.267Z,40.79
2024-05-09T21:40:38.485Z,41.16
2024-05-09T21:43:08.134Z,40.79
2024-05-09T21:45:36.648Z,40.74
2024-05-09T21:48:06.029Z,40.99
2024-05-09T21:50:39.893Z,41.14
2024-05-09T21:53:13.525Z,41.12
2024-05-09T21:55:45.268Z,41.04
2024-05-09T21:58:14.862Z,40.90
2024-05-09T22:00:45.682Z,41.25
2024-05-09T22:03:14.619Z,40.89
2024-05-09T22:05:44.423Z,40.92
2024-05-09T22:08:12.953Z,40.87
2024-05-09T22:10:40.476Z,40.84
2024-05-09T22:13:09.073Z,40.79
2024-05-09T22:15:39.617Z,40.98
2024-05-09T22:18:10.352Z,40.73
2024-05-09T22:20:46.330Z,41.01
2024-05-09T22:23:15.860Z,40.74
2024-05-09T22:25:43.582Z,40.68
2024-05-09T22:28:14.422Z,40.63
2024-05-09T22:30:43.948Z,40.54
2024-05-09T22:33:12.550Z,40.51
2024-05-09T22:35:41.116Z,40.79
2024-05-09T22:38:09.473Z,41.11
2024-05-09T22:40:45.969Z,41.20
2024-05-09T22:43:23.133Z,41.13
2024-05-09T22:45:54.754Z,40.87
2024-05-09T22:48:24.731Z,41.01
2024-05-09T22:50:52.737Z,40.89
2024-05-09T22:53:25.760Z,40.82
2024-05-09T22:55:53.598Z,41.02
2024-05-09T22:58:22.362Z,41.22
2024-05-09T23:00:50.314Z,41.20
2024-05-09T23:03:21.255Z,41.45
2024-05-09T23:05:50.711Z,41.30
2024-05-09T23:08:18.971Z,41.11
2024-05-09T23:10:46.546Z,40.95
2024-05-09T23:13:14.401Z,40.94
2024-05-09T23:15:41.899Z,41.29
2024-05-09T23:18:10.040Z,41.11
2024-05-09T23:20:39.717Z,41.48
2024-05-09T23:23:10.622Z,41.27
2024-05-09T23:25:40.921Z,41.06
2024-05-09T23:28:09.231Z,41.01
2024-05-09T23:30:40.150Z,41.04
2024-05-09T23:33:13.721Z,40.72
2024-05-09T23:35:43.970Z,40.84
2024-05-09T23:38:12.730Z,40.85
2024-05-09T23:40:41.691Z,40.98
2024-05-09T23:43:12.603Z,40.86
2024-05-09T23:45:41.553Z,40.93
2024-05-09T23:48:10.718Z,40.76
2024-05-09T23:50:40.082Z,41.16
2024-05-09T23:53:09.910Z,41.16
2024-05-09T23:55:38.821Z,40.79
2024-05-09T23:58:07.801Z,40.76
